Terminal Aerodrome Forecast
Issued by NWS Charleston, WV

Current Version | Previous Version | Graphics & Text | Print | Product List | Glossary On
Versions: 1 2 3 4 5 6 7 8 9 10 11 12 13 14 15 16 17 18 19 20 21 22 23
000
FTUS41 KRLX 231000 AAB
TAFEKN
TAF AMD
KEKN 231053Z 2311/2406 16009KT P6SM VCSH BKN045
     FM231400 15007KT P6SM BKN040
     FM240400 14004KT P6SM OVC025=

USA.gov is the U.S. government's official web portal to all federal, state and local government web resources and services.